createdAt,value
2019-05-17T00:01:22.363Z,4.57
2019-05-17T00:03:53.777Z,4.70
2019-05-17T00:06:24.574Z,4.10
2019-05-17T00:08:56.454Z,5.00
2019-05-17T00:11:27.959Z,4.97
2019-05-17T00:13:58.704Z,4.53
2019-05-17T00:16:29.708Z,4.57
2019-05-17T00:19:00.843Z,4.57
2019-05-17T00:21:31.568Z,4.63
2019-05-17T00:24:02.544Z,4.60
2019-05-17T00:26:33.344Z,4.80
2019-05-17T00:29:06.653Z,4.77
2019-05-17T00:31:37.158Z,4.50
2019-05-17T00:34:07.883Z,5.00
2019-05-17T00:36:38.677Z,4.43
2019-05-17T00:39:09.814Z,4.37
2019-05-17T00:41:40.543Z,5.07
2019-05-17T00:44:11.430Z,4.93
2019-05-17T00:46:42.456Z,4.70
2019-05-17T00:49:13.266Z,4.70
2019-05-17T00:51:44.223Z,4.60
2019-05-17T00:54:17.256Z,4.27
2019-05-17T00:56:47.575Z,4.33
2019-05-17T00:59:18.331Z,4.77
2019-05-17T01:01:49.075Z,4.40
2019-05-17T01:04:19.894Z,4.27
2019-05-17T01:06:50.767Z,4.47
2019-05-17T01:09:21.738Z,4.13
2019-05-17T01:11:52.472Z,4.33
2019-05-17T01:14:23.462Z,4.60
2019-05-17T01:16:56.360Z,4.67
2019-05-17T01:19:27.073Z,4.73
2019-05-17T01:21:58.049Z,4.60
2019-05-17T01:24:29.024Z,4.40
2019-05-17T01:27:00.077Z,4.00
2019-05-17T01:29:31.146Z,4.57
2019-05-17T01:32:02.366Z,4.70
2019-05-17T01:34:33.209Z,4.80
2019-05-17T01:37:06.339Z,4.33
2019-05-17T01:39:37.462Z,4.60
2019-05-17T01:42:09.567Z,5.03
2019-05-17T01:44:40.313Z,4.83
2019-05-17T01:47:11.514Z,4.70
2019-05-17T01:49:42.859Z,4.70
2019-05-17T01:52:13.833Z,5.10
2019-05-17T01:54:46.781Z,5.40
2019-05-17T01:57:17.093Z,4.87
2019-05-17T01:59:47.847Z,4.53
2019-05-17T02:02:23.144Z,5.03
2019-05-17T02:04:54.115Z,5.20
2019-05-17T02:07:26.716Z,5.03
2019-05-17T02:09:57.825Z,5.23
2019-05-17T02:12:28.623Z,5.30
2019-05-17T02:14:59.617Z,5.27
2019-05-17T02:17:30.573Z,5.10
2019-05-17T02:20:02.515Z,5.70
2019-05-17T02:22:33.315Z,6.20
2019-05-17T02:25:07.137Z,6.07
2019-05-17T02:27:41.181Z,6.00
2019-05-17T02:30:14.018Z,6.07
2019-05-17T02:32:43.443Z,5.87
2019-05-17T02:35:15.396Z,5.70
2019-05-17T02:37:46.355Z,5.33
2019-05-17T02:40:17.589Z,5.60
2019-05-17T02:42:48.865Z,5.73
2019-05-17T02:45:23.205Z,5.60
2019-05-17T02:47:53.802Z,5.70
2019-05-17T02:50:24.663Z,6.80
2019-05-17T02:52:55.713Z,7.00
2019-05-17T02:55:26.448Z,6.80
2019-05-17T02:57:57.849Z,7.10
2019-05-17T03:00:28.689Z,7.00
2019-05-17T03:03:03.037Z,7.40
2019-05-17T03:05:33.695Z,7.00
2019-05-17T03:08:05.121Z,6.93
2019-05-17T03:10:35.861Z,7.37
2019-05-17T03:13:06.669Z,7.17
2019-05-17T03:15:37.405Z,7.10
2019-05-17T03:18:08.212Z,6.80
2019-05-17T03:20:38.986Z,7.33
2019-05-17T03:23:12.429Z,7.03
2019-05-17T03:25:44.078Z,7.90
2019-05-17T03:28:15.036Z,8.23
2019-05-17T03:30:47.379Z,8.30
2019-05-17T03:33:18.584Z,8.63
2019-05-17T03:35:49.522Z,8.53
2019-05-17T03:38:22.785Z,8.70
2019-05-17T03:41:18.279Z,8.23
2019-05-17T03:43:26.495Z,8.50
2019-05-17T03:45:58.029Z,7.83
2019-05-17T03:48:28.868Z,8.47
2019-05-17T03:51:02.383Z,8.47
2019-05-17T03:53:33.451Z,8.00
2019-05-17T03:56:04.443Z,7.70
2019-05-17T03:58:35.255Z,8.33
2019-05-17T04:01:06.496Z,8.57
2019-05-17T04:03:37.530Z,9.00
2019-05-17T04:06:08.717Z,8.77
2019-05-17T04:08:42.253Z,8.50
2019-05-17T04:11:22.402Z,8.57
2019-05-17T04:13:45.617Z,8.50
2019-05-17T04:16:16.337Z,8.17
2019-05-17T04:18:47.305Z,8.60
2019-05-17T04:21:18.286Z,9.13
2019-05-17T04:23:49.147Z,9.13
2019-05-17T04:26:22.766Z,8.53
2019-05-17T04:28:53.471Z,8.60
2019-05-17T04:31:25.159Z,8.33
2019-05-17T04:33:56.151Z,8.70
2019-05-17T04:36:27.122Z,9.87
2019-05-17T04:38:58.129Z,9.03
2019-05-17T04:41:44.147Z,9.23
2019-05-17T04:44:02.766Z,9.03
2019-05-17T04:46:33.671Z,9.50
2019-05-17T04:49:05.575Z,9.73
2019-05-17T04:51:36.316Z,9.83
2019-05-17T04:54:07.088Z,10.20
2019-05-17T04:56:37.842Z,13.27
2019-05-17T04:59:09.073Z,11.90
2019-05-17T05:01:43.637Z,12.10
2019-05-17T05:04:15.508Z,14.30
2019-05-17T05:06:45.431Z,12.00
2019-05-17T05:09:16.259Z,13.40
2019-05-17T05:11:59.660Z,12.27
2019-05-17T05:14:19.863Z,12.10
2019-05-17T05:16:52.862Z,12.67
2019-05-17T05:19:23.717Z,12.53
2019-05-17T05:21:54.534Z,12.23
2019-05-17T05:24:26.070Z,12.53
2019-05-17T05:26:56.808Z,12.87
2019-05-17T05:29:27.888Z,13.40
2019-05-17T05:31:58.656Z,12.50
2019-05-17T05:34:29.652Z,12.77
2019-05-17T05:37:02.094Z,12.23
2019-05-17T05:39:33.305Z,12.87
2019-05-17T05:42:10.231Z,12.40
2019-05-17T05:44:37.296Z,12.23
2019-05-17T05:47:08.941Z,13.13
2019-05-17T05:49:39.945Z,12.50
2019-05-17T05:52:12.517Z,13.53
2019-05-17T05:54:43.386Z,13.93
2019-05-17T05:57:14.398Z,13.77
2019-05-17T05:59:45.237Z,13.33
2019-05-17T06:02:16.292Z,14.90
2019-05-17T06:04:47.347Z,14.37
2019-05-17T06:07:18.422Z,13.73
2019-05-17T06:09:51.612Z,14.83
2019-05-17T06:12:27.697Z,13.87
2019-05-17T06:14:54.530Z,14.43
2019-05-17T06:17:25.537Z,14.53
2019-05-17T06:19:56.297Z,14.63
2019-05-17T06:22:27.533Z,15.33
2019-05-17T06:24:58.314Z,15.53
2019-05-17T06:27:29.155Z,14.50
2019-05-17T06:30:01.514Z,15.17
2019-05-17T06:32:32.341Z,15.00
2019-05-17T06:35:03.176Z,15.13
2019-05-17T06:37:34.412Z,15.70
2019-05-17T06:40:05.665Z,14.87
2019-05-17T06:42:41.086Z,14.67
2019-05-17T06:45:09.324Z,15.00
2019-05-17T06:47:42.322Z,14.20
2019-05-17T06:50:14.251Z,14.07
2019-05-17T06:52:45.659Z,14.77
2019-05-17T06:55:16.493Z,14.57
2019-05-17T06:57:47.435Z,14.73
2019-05-17T07:00:23.422Z,14.17
2019-05-17T07:02:51.540Z,14.63
2019-05-17T07:05:26.485Z,14.13
2019-05-17T07:08:00.110Z,13.80
2019-05-17T07:10:30.383Z,13.13
2019-05-17T07:13:01.978Z,12.73
2019-05-17T07:15:43.671Z,13.35
2019-05-17T07:18:05.757Z,12.35
2019-05-17T07:20:36.491Z,12.85
2019-05-17T07:23:07.426Z,12.23
2019-05-17T07:25:39.707Z,11.70
2019-05-17T07:28:10.925Z,12.95
2019-05-17T07:30:42.876Z,12.28
2019-05-17T07:33:13.949Z,11.97
2019-05-17T07:35:44.948Z,12.33
2019-05-17T07:38:15.943Z,12.70
2019-05-17T07:40:46.995Z,12.73
2019-05-17T07:43:20.568Z,12.07
2019-05-17T07:45:50.711Z,11.83
2019-05-17T07:48:21.930Z,11.47
2019-05-17T07:50:53.145Z,10.50
2019-05-17T07:53:24.133Z,11.30
2019-05-17T07:55:54.903Z,12.27
2019-05-17T07:58:26.142Z,11.77
2019-05-17T08:00:57.384Z,11.00
2019-05-17T08:03:29.866Z,11.03
2019-05-17T08:06:00.724Z,11.93
2019-05-17T08:08:31.567Z,12.47
2019-05-17T08:11:02.506Z,11.60
2019-05-17T08:13:33.860Z,12.17
2019-05-17T08:16:04.693Z,11.50
2019-05-17T08:18:35.696Z,11.03
2019-05-17T08:21:06.523Z,10.03
2019-05-17T08:23:39.845Z,9.60
2019-05-17T08:26:10.805Z,7.50
2019-05-17T08:28:41.712Z,7.40
2019-05-17T08:31:12.435Z,8.20
2019-05-17T08:33:43.252Z,8.13
2019-05-17T08:36:14.304Z,7.57
2019-05-17T08:38:45.041Z,7.63
2019-05-17T08:41:16.010Z,8.50
2019-05-17T08:43:47.278Z,7.83
2019-05-17T08:46:19.922Z,7.17
2019-05-17T08:48:51.019Z,7.90
2019-05-17T08:51:21.919Z,7.37
2019-05-17T08:53:52.927Z,7.47
2019-05-17T08:56:23.948Z,7.13
2019-05-17T08:58:55.487Z,7.90
2019-05-17T09:01:26.961Z,7.40
2019-05-17T09:03:59.771Z,7.47
2019-05-17T09:06:30.168Z,6.77
2019-05-17T09:09:01.031Z,6.10
2019-05-17T09:11:33.321Z,6.10
2019-05-17T09:14:04.432Z,6.07
2019-05-17T09:16:35.170Z,6.40
2019-05-17T09:19:06.896Z,5.93
2019-05-17T09:21:39.757Z,5.93
2019-05-17T09:24:10.638Z,5.40
2019-05-17T09:26:42.352Z,5.57
2019-05-17T09:29:13.147Z,5.50
2019-05-17T09:31:44.105Z,5.27
2019-05-17T09:34:15.178Z,5.10
2019-05-17T09:36:45.905Z,5.20
2019-05-17T09:39:16.685Z,4.50
2019-05-17T09:41:50.164Z,4.90
2019-05-17T09:44:20.735Z,4.77
2019-05-17T09:46:51.900Z,4.43
2019-05-17T09:49:23.112Z,4.30
2019-05-17T09:51:53.852Z,5.20
2019-05-17T09:54:39.993Z,5.70
2019-05-17T09:57:00.306Z,5.40
2019-05-17T09:59:30.671Z,4.87
2019-05-17T10:02:01.696Z,5.53
2019-05-17T10:04:32.520Z,5.60
2019-05-17T10:07:03.290Z,5.30
2019-05-17T10:09:34.107Z,5.40
2019-05-17T10:12:05.109Z,4.30
2019-05-17T10:14:36.477Z,4.57
2019-05-17T10:17:09.691Z,5.30
2019-05-17T10:19:40.295Z,5.00
2019-05-17T10:22:11.773Z,4.50
2019-05-17T10:24:42.809Z,4.80
2019-05-17T10:27:14.691Z,5.40
2019-05-17T10:29:45.950Z,5.30
2019-05-17T10:32:17.046Z,4.97
2019-05-17T10:34:49.510Z,4.87
2019-05-17T10:37:20.749Z,4.95
2019-05-17T10:39:51.644Z,5.13
2019-05-17T10:42:22.968Z,5.30
2019-05-17T10:44:54.707Z,4.83
2019-05-17T10:47:25.712Z,5.45
2019-05-17T10:49:56.733Z,5.00
2019-05-17T10:52:29.729Z,5.43
2019-05-17T10:55:00.074Z,4.73
2019-05-17T10:57:30.875Z,4.53
2019-05-17T11:00:02.119Z,5.00
2019-05-17T11:02:34.800Z,4.37
2019-05-17T11:05:07.542Z,5.37
2019-05-17T11:07:38.369Z,4.67
2019-05-17T11:10:11.750Z,4.90
2019-05-17T11:12:42.742Z,5.17
2019-05-17T11:15:13.988Z,5.10
2019-05-17T11:17:44.712Z,5.70
2019-05-17T11:20:16.390Z,4.73
2019-05-17T11:22:47.319Z,4.75
2019-05-17T11:25:18.197Z,4.37
2019-05-17T11:27:49.028Z,4.22
2019-05-17T11:30:21.258Z,4.33
2019-05-17T11:32:52.209Z,4.03
2019-05-17T11:35:24.764Z,4.30
2019-05-17T11:37:55.593Z,4.10
2019-05-17T11:40:26.588Z,3.60
2019-05-17T11:42:57.913Z,4.17
2019-05-17T11:45:32.499Z,4.10
2019-05-17T11:48:01.783Z,4.27
2019-05-17T11:50:32.899Z,3.90
2019-05-17T11:53:04.283Z,3.62
2019-05-17T11:55:35.373Z,3.40
2019-05-17T11:58:06.179Z,3.80
2019-05-17T12:00:37.465Z,3.70
2019-05-17T12:03:08.871Z,4.10
2019-05-17T12:05:39.755Z,3.90
2019-05-17T12:08:10.755Z,3.77
2019-05-17T12:10:41.635Z,3.75
2019-05-17T12:13:13.485Z,3.47
2019-05-17T12:15:45.717Z,3.85
2019-05-17T12:18:16.590Z,3.60
2019-05-17T12:20:47.421Z,3.70
2019-05-17T12:23:18.154Z,4.10
2019-05-17T12:25:49.243Z,4.08
2019-05-17T12:28:19.997Z,3.40
2019-05-17T12:30:50.795Z,3.60
2019-05-17T12:33:21.773Z,3.40
2019-05-17T12:35:53.036Z,3.75
2019-05-17T12:38:23.760Z,3.77
2019-05-17T12:40:54.853Z,4.10
2019-05-17T12:43:26.218Z,4.17
2019-05-17T12:46:00.668Z,3.92
2019-05-17T12:48:30.236Z,4.00
2019-05-17T12:51:01.453Z,4.85
2019-05-17T12:53:32.537Z,5.08
2019-05-17T12:56:03.495Z,4.72
2019-05-17T12:58:34.250Z,5.63
2019-05-17T13:01:06.165Z,4.50
2019-05-17T13:03:37.120Z,4.30
2019-05-17T13:06:08.457Z,5.10
2019-05-17T13:08:39.223Z,5.08
2019-05-17T13:11:10.083Z,5.90
2019-05-17T13:13:40.817Z,5.47
2019-05-17T13:16:18.047Z,5.25
2019-05-17T13:18:44.466Z,4.58
2019-05-17T13:21:15.451Z,5.15
2019-05-17T13:23:46.653Z,5.00
2019-05-17T13:26:17.732Z,4.92
2019-05-17T13:28:48.464Z,5.53
2019-05-17T13:31:19.362Z,4.85
2019-05-17T13:33:50.574Z,5.45
2019-05-17T13:36:21.318Z,5.42
2019-05-17T13:38:52.079Z,5.10
2019-05-17T13:41:22.872Z,5.47
2019-05-17T13:43:53.752Z,5.12
2019-05-17T13:46:33.330Z,5.62
2019-05-17T13:48:59.401Z,5.62
2019-05-17T13:51:30.498Z,5.47
2019-05-17T13:54:01.458Z,5.83
2019-05-17T13:56:32.691Z,5.90
2019-05-17T13:59:03.503Z,5.15
2019-05-17T14:01:34.474Z,5.55
2019-05-17T14:04:05.505Z,5.17
2019-05-17T14:06:36.492Z,5.92
2019-05-17T14:09:07.643Z,5.75
2019-05-17T14:11:38.632Z,5.42
2019-05-17T14:14:09.865Z,5.55
2019-05-17T14:16:40.860Z,5.75
2019-05-17T14:19:11.663Z,5.67
2019-05-17T14:21:42.429Z,5.30
2019-05-17T14:24:13.381Z,5.35
2019-05-17T14:26:44.123Z,5.70
2019-05-17T14:29:16.659Z,5.97
2019-05-17T14:31:48.938Z,5.30
2019-05-17T14:34:20.764Z,5.42
2019-05-17T14:36:53.696Z,5.10
2019-05-17T14:39:26.206Z,5.22
2019-05-17T14:41:59.038Z,5.78
2019-05-17T14:44:30.825Z,5.50
2019-05-17T14:47:03.831Z,5.45
2019-05-17T14:49:38.015Z,5.00
2019-05-17T14:52:09.125Z,6.05
2019-05-17T14:54:39.855Z,5.20
2019-05-17T14:57:10.891Z,5.72
2019-05-17T14:59:43.713Z,6.00
2019-05-17T15:02:14.900Z,5.35
2019-05-17T15:04:45.874Z,5.33
2019-05-17T15:07:16.657Z,5.92
2019-05-17T15:09:47.637Z,5.53
2019-05-17T15:12:27.727Z,5.70
2019-05-17T15:14:51.351Z,6.00
2019-05-17T15:17:22.209Z,6.50
2019-05-17T15:19:52.943Z,4.65
2019-05-17T15:22:23.945Z,5.20
2019-05-17T15:24:54.754Z,5.30
2019-05-17T15:27:25.575Z,5.10
2019-05-17T15:29:56.305Z,5.83
2019-05-17T15:32:27.427Z,5.33
2019-05-17T15:34:58.477Z,5.28
2019-05-17T15:37:29.332Z,5.50
2019-05-17T15:40:00.344Z,5.25
2019-05-17T15:42:43.742Z,5.60
2019-05-17T15:45:05.506Z,4.90
2019-05-17T15:47:36.551Z,4.97
2019-05-17T15:50:07.801Z,4.83
2019-05-17T15:52:38.639Z,4.53
2019-05-17T15:55:09.760Z,5.55
2019-05-17T15:57:40.539Z,5.15
2019-05-17T16:00:12.933Z,5.22
2019-05-17T16:02:43.971Z,5.37
2019-05-17T16:05:15.729Z,5.10
2019-05-17T16:07:46.942Z,5.50
2019-05-17T16:10:18.302Z,4.70
2019-05-17T16:13:01.537Z,4.80
2019-05-17T16:15:21.992Z,4.90
2019-05-17T16:17:53.000Z,5.15
2019-05-17T16:20:26.948Z,4.70
2019-05-17T16:22:57.708Z,5.17
2019-05-17T16:25:28.677Z,4.70
2019-05-17T16:27:59.432Z,5.37
2019-05-17T16:30:31.439Z,4.67
2019-05-17T16:33:02.457Z,5.28
2019-05-17T16:35:33.442Z,4.87
2019-05-17T16:38:04.300Z,4.60
2019-05-17T16:40:35.357Z,4.72
2019-05-17T16:43:17.602Z,4.75
2019-05-17T16:45:38.929Z,4.97
2019-05-17T16:48:10.235Z,5.30
2019-05-17T16:50:41.042Z,4.75
2019-05-17T16:53:12.033Z,4.92
2019-05-17T16:55:42.988Z,4.85
2019-05-17T16:58:13.816Z,4.60
2019-05-17T17:00:44.706Z,4.37
2019-05-17T17:03:15.693Z,4.70
2019-05-17T17:05:46.523Z,4.58
2019-05-17T17:08:17.989Z,4.50
2019-05-17T17:10:49.319Z,4.70
2019-05-17T17:13:32.454Z,4.10
2019-05-17T17:15:53.752Z,4.40
2019-05-17T17:18:24.737Z,4.58
2019-05-17T17:20:55.464Z,4.50
2019-05-17T17:23:27.257Z,4.53
2019-05-17T17:25:58.065Z,4.78
2019-05-17T17:28:29.877Z,4.28
2019-05-17T17:31:00.909Z,4.80
2019-05-17T17:33:32.015Z,4.60
2019-05-17T17:36:02.856Z,4.45
2019-05-17T17:38:34.288Z,4.22
2019-05-17T17:41:05.094Z,4.90
2019-05-17T17:43:36.848Z,4.10
2019-05-17T17:46:07.933Z,4.10
2019-05-17T17:48:38.960Z,4.12
2019-05-17T17:51:10.959Z,4.10
2019-05-17T17:53:41.769Z,4.30
2019-05-17T17:56:13.635Z,3.83
2019-05-17T17:58:44.527Z,3.63
2019-05-17T18:01:15.569Z,3.90
2019-05-17T18:03:46.309Z,3.87
2019-05-17T18:06:17.279Z,3.67
2019-05-17T18:08:48.263Z,3.97
2019-05-17T18:11:19.366Z,3.67
2019-05-17T18:13:50.125Z,3.83
2019-05-17T18:16:21.050Z,3.50
2019-05-17T18:18:52.295Z,3.60
2019-05-17T18:21:23.173Z,3.50
2019-05-17T18:23:54.677Z,3.50
2019-05-17T18:26:26.746Z,3.77
2019-05-17T18:28:58.049Z,3.40
2019-05-17T18:31:29.228Z,3.37
2019-05-17T18:34:00.610Z,3.50
2019-05-17T18:36:31.405Z,3.67
2019-05-17T18:39:02.530Z,3.60
2019-05-17T18:41:35.041Z,3.77
2019-05-17T18:44:06.299Z,3.53
2019-05-17T18:46:37.365Z,3.40
2019-05-17T18:49:08.343Z,3.50
2019-05-17T18:51:39.376Z,3.60
2019-05-17T18:54:11.136Z,3.50
2019-05-17T18:56:42.127Z,3.63
2019-05-17T18:59:14.114Z,3.57
2019-05-17T19:01:44.979Z,3.20
2019-05-17T19:04:16.060Z,3.37
2019-05-17T19:06:46.831Z,3.20
2019-05-17T19:09:17.648Z,3.20
2019-05-17T19:11:48.520Z,3.33
2019-05-17T19:14:20.566Z,2.80
2019-05-17T19:16:51.306Z,3.10
2019-05-17T19:19:22.124Z,3.10
2019-05-17T19:21:53.406Z,3.20
2019-05-17T19:24:24.385Z,2.70
2019-05-17T19:26:55.653Z,2.80
2019-05-17T19:29:26.795Z,3.10
2019-05-17T19:31:57.607Z,2.80
2019-05-17T19:34:28.672Z,2.67
2019-05-17T19:36:59.738Z,2.50
2019-05-17T19:39:30.721Z,2.47
2019-05-17T19:42:01.583Z,2.67
2019-05-17T19:44:33.111Z,2.30
2019-05-17T19:47:03.918Z,2.43
2019-05-17T19:49:34.895Z,2.40
2019-05-17T19:52:05.938Z,2.40
2019-05-17T19:54:37.170Z,2.40
2019-05-17T19:57:08.355Z,2.30
2019-05-17T19:59:39.101Z,2.30
2019-05-17T20:02:10.205Z,2.40
2019-05-17T20:04:41.199Z,2.50
2019-05-17T20:07:11.942Z,2.60
2019-05-17T20:09:42.790Z,2.30
2019-05-17T20:12:13.521Z,2.60
2019-05-17T20:14:44.313Z,2.60
2019-05-17T20:17:15.075Z,2.80
2019-05-17T20:19:46.168Z,2.60
2019-05-17T20:22:16.987Z,2.83
2019-05-17T20:24:48.403Z,2.70
2019-05-17T20:27:19.130Z,2.40
2019-05-17T20:29:50.368Z,2.60
2019-05-17T20:32:21.624Z,2.53
2019-05-17T20:34:53.798Z,2.60
2019-05-17T20:37:25.207Z,2.50
2019-05-17T20:39:55.956Z,2.80
2019-05-17T20:42:26.738Z,2.60
2019-05-17T20:44:58.013Z,2.37
2019-05-17T20:47:29.921Z,2.30
2019-05-17T20:50:00.754Z,2.40
2019-05-17T20:52:32.116Z,2.40
2019-05-17T20:55:02.864Z,2.60
2019-05-17T20:57:33.674Z,2.17
2019-05-17T21:00:04.929Z,2.30
2019-05-17T21:02:37.489Z,2.47
2019-05-17T21:05:08.878Z,2.60
2019-05-17T21:07:39.615Z,2.63
2019-05-17T21:10:12.357Z,2.67
2019-05-17T21:12:43.413Z,2.70
2019-05-17T21:15:15.092Z,2.50
2019-05-17T21:17:46.171Z,2.50
2019-05-17T21:20:17.695Z,2.57
2019-05-17T21:22:48.443Z,2.70
2019-05-17T21:25:19.864Z,2.47
2019-05-17T21:27:50.594Z,2.60
2019-05-17T21:30:21.629Z,2.60
2019-05-17T21:32:52.975Z,2.63
2019-05-17T21:35:23.752Z,2.60
2019-05-17T21:37:54.855Z,2.70
2019-05-17T21:40:25.657Z,2.67
2019-05-17T21:42:56.396Z,2.80
2019-05-17T21:45:27.489Z,2.73
2019-05-17T21:47:59.200Z,2.80
2019-05-17T21:50:30.271Z,2.70
2019-05-17T21:53:01.823Z,2.60
2019-05-17T21:55:32.561Z,2.63
2019-05-17T21:58:03.297Z,2.70
2019-05-17T22:01:04.297Z,2.53
2019-05-17T22:03:35.109Z,2.60
2019-05-17T22:06:06.330Z,2.93
2019-05-17T22:08:37.307Z,2.60
2019-05-17T22:11:08.126Z,2.70
2019-05-17T22:13:38.848Z,2.40
2019-05-17T22:16:19.189Z,2.33
2019-05-17T22:18:42.581Z,2.53
2019-05-17T22:21:13.586Z,2.50
2019-05-17T22:23:44.594Z,2.50
2019-05-17T22:26:16.318Z,2.70
2019-05-17T22:28:47.041Z,2.67
2019-05-17T22:31:17.876Z,2.50
2019-05-17T22:33:49.843Z,2.43
2019-05-17T22:36:20.917Z,2.50
2019-05-17T22:38:51.757Z,2.10
2019-05-17T22:41:22.504Z,2.30
2019-05-17T22:43:53.255Z,2.10
2019-05-17T22:46:35.665Z,2.13
2019-05-17T22:48:57.439Z,2.37
2019-05-17T22:51:28.664Z,2.40
2019-05-17T22:54:00.588Z,2.23
2019-05-17T22:56:31.563Z,2.20
2019-05-17T22:59:02.296Z,2.27
2019-05-17T23:01:33.036Z,2.30
2019-05-17T23:04:03.788Z,2.20
2019-05-17T23:06:34.789Z,2.40
2019-05-17T23:09:06.662Z,2.70
2019-05-17T23:11:37.504Z,3.00
2019-05-17T23:14:08.309Z,2.90
2019-05-17T23:16:50.869Z,2.80
2019-05-17T23:19:11.751Z,2.80
2019-05-17T23:21:42.500Z,2.63
2019-05-17T23:24:14.205Z,2.60
2019-05-17T23:26:44.967Z,2.40
2019-05-17T23:29:15.733Z,2.60
2019-05-17T23:31:46.513Z,2.93
2019-05-17T23:34:17.893Z,3.13
2019-05-17T23:36:48.860Z,3.00
2019-05-17T23:39:19.615Z,2.70
2019-05-17T23:41:50.388Z,2.50
2019-05-17T23:44:21.343Z,2.67
2019-05-17T23:47:06.069Z,3.10
2019-05-17T23:49:24.855Z,3.10
2019-05-17T23:51:55.823Z,3.00
2019-05-17T23:54:27.083Z,2.87
2019-05-17T23:56:57.857Z,3.17
2019-05-17T23:59:28.966Z,3.00
